Time;durP1;ratioP1;P1;durP2;ratioP2;P2;SDS_P1;SDS_P2;PMS_P1;PMS_P2;Temp;Humidity;BMP_temperature;BMP_pressure;BME280_temperature;BME280_humidity;BME280_pressure;Samples;Min_cycle;Max_cycle;Signal;HPM_P1;HPM_P2
2022/03/21 00:00:32;;;;;;;;;65.00;51.25;;;;;11.73;48.23;101894.78;5075519;27;45504;-73
2022/03/21 00:02:58;;;;;;;;;63.50;50.75;;;;;11.75;48.11;101897.41;5076474;27;46386;-67
2022/03/21 00:05:23;;;;;;;;;63.25;51.50;;;;;11.75;48.06;101894.75;5076477;27;45454;-68
2022/03/21 00:07:49;;;;;;;;;60.25;49.00;;;;;11.74;49.00;101888.63;5076983;27;45517;-70
2022/03/21 00:10:15;;;;;;;;;57.25;48.50;;;;;11.72;48.91;101887.78;5076482;27;45416;-68
2022/03/21 00:12:41;;;;;;;;;64.00;50.25;;;;;11.73;48.31;101886.88;5076485;27;45599;-68
2022/03/21 00:15:10;;;;;;;;;61.50;49.00;;;;;11.75;48.72;101892.13;5076480;27;45525;-69
2022/03/21 00:17:41;;;;;;;;;58.75;49.25;;;;;11.75;49.02;101889.50;5076365;27;45284;-72
2022/03/21 00:20:09;;;;;;;;;58.75;49.50;;;;;11.76;49.20;101893.84;5075247;28;45463;-70
2022/03/21 00:22:35;;;;;;;;;63.75;51.00;;;;;11.75;49.39;101892.13;5076004;28;45338;-66
2022/03/21 00:25:00;;;;;;;;;58.25;46.75;;;;;11.77;49.13;101891.19;5076085;27;45331;-68
2022/03/21 00:27:26;;;;;;;;;63.00;49.50;;;;;11.75;48.90;101886.84;5076239;27;45401;-71
2022/03/21 00:29:51;;;;;;;;;60.50;49.00;;;;;11.76;48.87;101886.81;5074854;28;45434;-68
2022/03/21 00:32:18;;;;;;;;;63.75;50.25;;;;;11.78;49.15;101886.78;5076144;27;46048;-68
2022/03/21 00:34:43;;;;;;;;;66.75;52.50;;;;;11.76;48.30;101886.81;5074853;28;45437;-70
2022/03/21 00:37:09;;;;;;;;;65.25;51.00;;;;;11.73;49.02;101895.63;5076247;27;45551;-67
2022/03/21 00:39:35;;;;;;;;;64.25;51.25;;;;;11.68;49.07;101894.84;5076260;27;45575;-70
2022/03/21 00:42:02;;;;;;;;;61.75;50.00;;;;;11.60;48.69;101894.13;5076129;27;46061;-68
2022/03/21 00:44:27;;;;;;;;;57.00;46.00;;;;;11.59;48.45;101897.69;5075898;27;45442;-66
2022/03/21 00:46:52;;;;;;;;;61.00;48.00;;;;;11.57;48.76;101899.47;5076146;27;45502;-68
2022/03/21 00:49:18;;;;;;;;;63.25;50.50;;;;;11.55;49.02;101897.75;5075629;27;46866;-70
2022/03/21 00:51:43;;;;;;;;;58.25;48.50;;;;;11.53;49.32;101902.22;5074315;28;46232;-69
2022/03/21 00:54:08;;;;;;;;;61.00;48.25;;;;;11.50;49.56;101901.34;5075886;27;46083;-68
2022/03/21 00:56:34;;;;;;;;;60.75;50.75;;;;;11.52;48.84;101895.19;5076220;27;45457;-68
2022/03/21 00:59:00;;;;;;;;;62.75;48.50;;;;;11.50;49.61;101892.59;5075769;27;45603;-68
2022/03/21 01:01:25;;;;;;;;;62.75;50.50;;;;;11.51;49.48;101891.69;5075572;27;45839;-70
2022/03/21 01:03:50;;;;;;;;;59.50;48.00;;;;;11.53;49.82;101883.75;5076010;27;45413;-72
2022/03/21 01:06:15;;;;;;;;;59.50;48.50;;;;;11.54;48.80;101891.63;5075858;27;45392;-68
2022/03/21 01:08:41;;;;;;;;;59.75;49.50;;;;;11.55;48.96;101890.72;5075081;27;45464;-73
2022/03/21 01:11:06;;;;;;;;;58.00;47.75;;;;;11.56;49.19;101889.84;5075529;27;45383;-66
2022/03/21 01:13:31;;;;;;;;;62.75;49.25;;;;;11.57;49.27;101886.28;5075534;27;45374;-68
2022/03/21 01:15:57;;;;;;;;;61.00;49.00;;;;;11.54;49.89;101883.72;5075788;27;45453;-72
2022/03/21 01:18:22;;;;;;;;;59.25;48.25;;;;;11.58;49.65;101898.59;5075673;27;45346;-70
2022/03/21 01:20:48;;;;;;;;;66.00;52.75;;;;;11.54;49.56;101883.72;5075500;27;46127;-69
2022/03/21 01:23:13;;;;;;;;;61.50;49.00;;;;;11.51;49.80;101883.78;5075457;27;45456;-70
2022/03/21 01:25:39;;;;;;;;;57.50;47.50;;;;;11.46;49.19;101891.75;5074361;27;45383;-68
2022/03/21 01:28:04;;;;;;;;;60.75;48.50;;;;;11.43;49.28;101890.97;5075635;27;45403;-70
2022/03/21 01:30:29;;;;;;;;;56.00;44.75;;;;;11.41;49.91;101895.38;5075096;28;45471;-68
2022/03/21 01:32:55;;;;;;;;;56.50;46.00;;;;;11.41;49.77;101895.38;5075594;27;45428;-66
2022/03/21 01:35:21;;;;;;;;;59.25;47.75;;;;;11.43;50.09;101897.09;5075626;27;45517;-70
2022/03/21 01:37:47;;;;;;;;;59.50;47.25;;;;;11.45;49.36;101892.66;5075630;27;45484;-70
2022/03/21 01:40:14;;;;;;;;;60.00;48.25;;;;;11.48;49.67;101889.97;5075295;28;45971;-68
2022/03/21 01:42:43;;;;;;;;;55.25;46.50;;;;;11.50;49.99;101882.91;5075524;27;45468;-70
2022/03/21 01:45:09;;;;;;;;;55.75;45.75;;;;;11.52;49.46;101897.81;5075361;27;45524;-66
2022/03/21 01:47:35;;;;;;;;;56.00;45.75;;;;;11.54;50.27;101896.03;5075327;27;45565;-69
2022/03/21 01:50:03;;;;;;;;;58.00;47.25;;;;;11.57;49.89;101888.06;5075016;27;46089;-69
2022/03/21 01:52:28;;;;;;;;;53.00;44.50;;;;;11.59;49.15;101891.53;5075405;27;45439;-69
2022/03/21 01:57:39;;;;;;;;;58.75;48.00;;;;;11.60;49.67;101896.75;5075290;28;45583;-70
2022/03/21 02:00:05;;;;;;;;;58.00;48.00;;;;;11.61;49.55;101895.88;5074924;27;46012;-66
2022/03/21 02:02:30;;;;;;;;;57.75;48.75;;;;;11.60;49.53;101888.84;5074996;28;45477;-70
2022/03/21 02:04:56;;;;;;;;;56.00;45.75;;;;;11.61;49.84;101889.75;5075055;27;45433;-68
2022/03/21 02:07:23;;;;;;;;;63.00;51.00;;;;;11.62;49.41;101891.47;5075181;27;45652;-67
2022/03/21 02:09:49;;;;;;;;;61.50;50.00;;;;;11.60;49.62;101896.75;5074829;27;46156;-70
2022/03/21 02:12:15;;;;;;;;;58.75;46.50;;;;;11.58;49.41;101897.69;5074981;27;46079;-70
2022/03/21 02:14:41;;;;;;;;;54.75;46.25;;;;;11.54;49.55;101893.38;5074380;27;45499;-66
2022/03/21 02:17:10;;;;;;;;;60.50;47.75;;;;;11.55;49.58;101889.84;5075112;27;45540;-70
2022/03/21 02:19:38;;;;;;;;;54.25;45.50;;;;;11.55;50.39;101887.22;5074581;27;45444;-68
2022/03/21 02:22:08;;;;;;;;;58.25;46.25;;;;;11.54;49.65;101886.34;5078044;27;45449;-67
2022/03/21 02:24:47;;;;;;;;;61.00;50.75;;;;;11.55;50.05;101887.22;5078427;27;45409;-67
2022/03/21 02:27:15;;;;;;;;;58.00;44.75;;;;;11.55;50.16;101888.06;5078087;27;45398;-65
2022/03/21 02:29:43;;;;;;;;;61.00;51.00;;;;;11.53;50.43;101889.03;5078169;27;46058;-72
2022/03/21 02:32:08;;;;;;;;;46.75;40.25;;;;;11.50;49.60;101887.31;5078270;27;45535;-69
2022/03/21 02:34:38;;;;;;;;;63.25;49.25;;;;;11.49;49.74;101875.88;5078147;27;45388;-68
2022/03/21 02:37:04;;;;;;;;;62.25;49.50;;;;;11.49;50.47;101878.53;5078423;27;45433;-65
2022/03/21 02:39:30;;;;;;;;;59.00;50.00;;;;;11.43;50.18;101873.38;5078141;27;45506;-67
2022/03/21 02:41:56;;;;;;;;;56.25;45.00;;;;;11.46;49.74;101875.09;5076720;27;45529;-66
2022/03/21 02:44:22;;;;;;;;;60.25;49.25;;;;;11.46;49.79;101875.09;5078386;27;45515;-70
2022/03/21 02:46:48;;;;;;;;;55.00;45.25;;;;;11.48;49.49;101870.66;5078244;27;45663;-68
2022/03/21 02:49:14;;;;;;;;;56.00;47.00;;;;;11.47;50.59;101866.28;5078293;27;45953;-68
2022/03/21 02:51:41;;;;;;;;;57.25;47.75;;;;;11.47;50.53;101864.53;5078011;27;45409;-70
2022/03/21 02:54:07;;;;;;;;;56.75;46.50;;;;;11.48;50.65;101868.03;5077780;28;45400;-70
2022/03/21 02:56:33;;;;;;;;;56.75;46.75;;;;;11.47;50.95;101866.28;5077883;27;45633;-69
2022/03/21 02:58:58;;;;;;;;;58.00;48.00;;;;;11.49;50.36;101865.34;5077129;27;45446;-70
2022/03/21 03:01:24;;;;;;;;;55.25;45.75;;;;;11.50;50.07;101866.25;5077573;27;45356;-66
2022/03/21 03:03:49;;;;;;;;;60.50;48.25;;;;;11.50;50.77;101866.25;5078120;27;45985;-70
2022/03/21 03:06:15;;;;;;;;;59.00;48.50;;;;;11.51;50.39;101867.97;5077985;27;45343;-69
2022/03/21 03:08:42;;;;;;;;;60.75;48.50;;;;;11.50;50.75;101861.84;5077440;27;46319;-71
2022/03/21 03:11:08;;;;;;;;;65.00;50.50;;;;;11.52;49.95;101874.09;5077516;27;45386;-70
2022/03/21 03:13:33;;;;;;;;;59.50;48.00;;;;;11.50;50.63;101869.75;5077759;27;45452;-64
2022/03/21 03:15:59;;;;;;;;;60.75;48.00;;;;;11.47;50.36;101871.53;5077788;27;45357;-69
2022/03/21 03:18:24;;;;;;;;;57.00;46.75;;;;;11.45;49.86;101871.59;5077352;27;45382;-70
2022/03/21 03:20:55;;;;;;;;;59.50;49.00;;;;;11.45;50.47;101876.00;5077508;27;45323;-68
2022/03/21 03:23:25;;;;;;;;;56.75;46.25;;;;;11.46;50.86;101875.09;5077594;27;45518;-67
2022/03/21 03:26:02;;;;;;;;;53.75;43.75;;;;;11.46;50.39;101881.22;5077475;27;45503;-70
2022/03/21 03:28:29;;;;;;;;;59.75;49.50;;;;;11.48;50.98;101882.06;5077395;27;45671;-68
2022/03/21 03:30:55;;;;;;;;;62.25;49.75;;;;;11.48;50.64;101878.56;5077159;27;45435;-68
2022/03/21 03:33:22;;;;;;;;;55.50;44.50;;;;;11.52;50.74;101879.38;5076616;28;45482;-70
2022/03/21 03:35:48;;;;;;;;;61.25;49.25;;;;;11.52;51.10;101884.63;5077326;27;45464;-70
2022/03/21 03:38:15;;;;;;;;;59.50;48.50;;;;;11.51;51.21;101883.78;5077263;27;46270;-68
2022/03/21 03:40:40;;;;;;;;;57.00;47.25;;;;;11.51;51.40;101886.41;5075918;27;45387;-70
2022/03/21 03:43:06;;;;;;;;;63.50;48.75;;;;;11.51;50.36;101883.78;5077213;27;45454;-66
2022/03/21 03:45:31;;;;;;;;;61.75;50.00;;;;;11.50;51.21;101895.22;5077095;27;45347;-66
2022/03/21 03:47:57;;;;;;;;;58.50;47.75;;;;;11.47;51.51;101888.25;5077003;27;46091;-68
2022/03/21 03:50:22;;;;;;;;;60.25;49.75;;;;;11.45;51.02;101884.75;5076956;27;45372;-68
2022/03/21 03:52:48;;;;;;;;;60.00;48.25;;;;;11.41;51.11;101885.69;5078021;27;45569;-71
2022/03/21 03:55:15;;;;;;;;;59.75;48.25;;;;;11.40;51.01;101893.66;5077275;27;45370;-68
2022/03/21 03:57:40;;;;;;;;;59.75;49.00;;;;;11.37;51.29;101893.72;5076780;27;45490;-68
2022/03/21 04:00:08;;;;;;;;;58.00;48.00;;;;;11.34;51.18;101891.09;5076629;28;45461;-71
2022/03/21 04:03:44;;;;;;;;;63.00;51.00;;;;;11.34;51.81;101894.63;5076804;27;45445;-70
2022/03/21 04:05:21;;;;;;;;;64.50;52.00;;;;;11.33;51.75;101899.91;5076753;27;45423;-66
2022/03/21 04:07:46;;;;;;;;;60.75;49.00;;;;;11.32;52.07;101896.41;5076711;27;45613;-69
2022/03/21 04:10:12;;;;;;;;;61.00;49.75;;;;;11.33;51.94;101895.50;5076318;27;45484;-70
2022/03/21 04:12:37;;;;;;;;;13.75;7.75;;;;;11.36;52.34;101897.22;5076855;27;45459;-70
2022/03/21 04:15:03;;;;;;;;;53.75;44.00;;;;;11.38;51.51;101893.66;5076520;27;45412;-66
2022/03/21 04:17:28;;;;;;;;;60.00;47.25;;;;;11.41;51.87;101892.75;5076505;27;45641;-66
2022/03/21 04:19:54;;;;;;;;;56.00;47.00;;;;;11.43;52.41;101899.72;5076022;27;47352;-67
2022/03/21 04:22:19;;;;;;;;;62.75;51.00;;;;;11.46;51.95;101904.06;5076798;27;45551;-66
2022/03/21 04:24:44;;;;;;;;;57.25;47.75;;;;;11.48;51.89;101912.81;5076544;27;45481;-70
2022/03/21 04:27:10;;;;;;;;;56.50;46.50;;;;;11.50;51.24;101913.66;5076249;27;45528;-71
2022/03/21 04:29:35;;;;;;;;;57.00;46.00;;;;;11.47;52.22;101906.69;5076235;27;45444;-67
2022/03/21 04:32:01;;;;;;;;;59.25;49.25;;;;;11.50;51.36;101911.91;5076497;27;45473;-68
2022/03/21 04:34:26;;;;;;;;;61.25;51.00;;;;;11.50;51.64;101918.94;5076404;27;45432;-70
2022/03/21 04:36:52;;;;;;;;;60.25;49.25;;;;;11.52;52.22;101921.53;5076224;27;46632;-68
2022/03/21 04:39:17;;;;;;;;;64.00;49.50;;;;;11.48;51.85;101918.94;5075933;27;45378;-65
2022/03/21 04:41:42;;;;;;;;;63.00;50.75;;;;;11.46;52.10;101919.88;5076505;27;45481;-68
2022/03/21 04:44:08;;;;;;;;;60.50;50.50;;;;;11.45;51.74;101924.28;5075061;28;45735;-68
2022/03/21 04:46:33;;;;;;;;;57.00;47.00;;;;;11.43;51.53;101918.16;5076095;27;45384;-69
2022/03/21 04:48:59;;;;;;;;;62.50;51.25;;;;;11.45;52.67;101923.41;5076082;27;45414;-67
2022/03/21 04:51:24;;;;;;;;;54.25;44.25;;;;;11.46;52.79;101935.69;5076246;27;45490;-67
2022/03/21 04:53:49;;;;;;;;;57.00;46.00;;;;;11.46;52.16;101933.91;5076036;27;46369;-68
2022/03/21 04:56:15;;;;;;;;;58.00;47.75;;;;;11.49;51.67;101940.88;5076035;27;46297;-68
2022/03/21 04:58:40;;;;;;;;;60.25;48.25;;;;;11.50;52.66;101942.66;5075808;27;45354;-67
2022/03/21 05:01:06;;;;;;;;;57.25;46.75;;;;;11.48;52.70;101936.53;5075813;27;49192;-68
2022/03/21 05:03:32;;;;;;;;;58.50;47.25;;;;;11.50;52.44;101942.66;5075902;27;45374;-67
2022/03/21 05:05:57;;;;;;;;;51.25;37.50;;;;;11.50;52.32;101947.91;5075702;27;46273;-69
2022/03/21 05:08:22;;;;;;;;;57.75;47.75;;;;;11.50;51.99;101947.91;5075923;27;45438;-66
2022/03/21 05:10:48;;;;;;;;;60.50;49.75;;;;;11.48;52.44;101936.53;5076134;27;45303;-67
2022/03/21 05:13:14;;;;;;;;;63.25;50.00;;;;;11.48;52.80;101944.44;5075822;27;45438;-67
2022/03/21 05:15:39;;;;;;;;;63.50;51.00;;;;;11.46;52.78;101935.69;5075627;27;46448;-71
2022/03/21 05:18:04;;;;;;;;;59.50;49.50;;;;;11.46;53.15;101943.59;5075729;27;45409;-70
2022/03/21 05:20:30;;;;;;;;;57.50;47.25;;;;;11.45;52.76;101939.22;5075592;27;47349;-67
2022/03/21 05:31:08;;;;;;;;;56.00;47.75;;;;;11.41;53.60;101945.44;5075110;28;45369;-65
2022/03/21 05:36:21;;;;;;;;;64.50;51.50;;;;;11.41;53.67;101946.28;5075296;28;45865;-66
2022/03/21 05:38:46;;;;;;;;;56.00;47.00;;;;;11.41;53.31;101955.97;5075476;27;45513;-69
2022/03/21 05:41:12;;;;;;;;;54.50;45.25;;;;;11.40;53.70;101954.22;5075356;27;45515;-66
2022/03/21 05:43:37;;;;;;;;;62.75;50.25;;;;;11.39;53.09;101950.75;5075464;27;45467;-70
2022/03/21 05:46:04;;;;;;;;;63.25;49.50;;;;;11.38;54.01;101951.63;5075016;28;57419;-66
2022/03/21 05:51:15;;;;;;;;;61.75;50.00;;;;;11.38;53.28;101956.88;5075367;28;45457;-66
2022/03/21 05:53:41;;;;;;;;;56.00;47.50;;;;;11.38;53.92;101956.88;5075429;27;45537;-67
2022/03/21 05:56:06;;;;;;;;;61.75;49.25;;;;;11.39;53.79;101963.00;5075705;27;45392;-70
2022/03/21 05:58:31;;;;;;;;;61.00;50.50;;;;;11.39;53.76;101968.28;5078610;27;45449;-69
2022/03/21 06:00:57;;;;;;;;;58.25;49.50;;;;;11.38;54.48;101961.28;5077519;28;45464;-70
2022/03/21 06:03:24;;;;;;;;;61.25;49.00;;;;;11.40;53.43;101965.63;5079158;27;45377;-68
2022/03/21 06:05:50;;;;;;;;;62.25;50.25;;;;;11.42;53.65;101974.38;5078645;27;46095;-68
2022/03/21 06:08:16;;;;;;;;;61.00;48.50;;;;;11.41;53.87;101970.00;5078587;27;45456;-65
2022/03/21 06:10:42;;;;;;;;;60.75;47.75;;;;;11.41;54.09;101971.78;5078723;27;45413;-68
2022/03/21 06:13:08;;;;;;;;;58.25;49.25;;;;;11.39;53.60;101987.63;5078729;27;45521;-68
2022/03/21 06:15:35;;;;;;;;;58.75;49.25;;;;;11.37;54.48;101985.91;5078569;27;45441;-67
2022/03/21 06:18:01;;;;;;;;;59.75;47.75;;;;;11.35;54.72;101991.19;5078240;27;45352;-69
2022/03/21 06:20:27;;;;;;;;;59.00;48.75;;;;;11.34;54.48;101989.44;5078332;28;45468;-70
2022/03/21 06:22:52;;;;;;;;;56.75;47.00;;;;;11.33;54.44;101992.09;5078352;27;45604;-69
2022/03/21 06:25:18;;;;;;;;;60.50;49.00;;;;;11.32;54.93;101999.13;5078483;27;45531;-73
2022/03/21 06:27:43;;;;;;;;;62.00;47.75;;;;;11.33;54.90;101997.38;5078382;27;45421;-70
2022/03/21 06:30:09;;;;;;;;;57.75;47.00;;;;;11.32;55.14;102000.91;5078405;27;45416;-68
2022/03/21 06:32:35;;;;;;;;;63.00;49.00;;;;;11.33;54.11;102013.16;5078150;27;45465;-69
2022/03/21 06:35:01;;;;;;;;;60.50;49.00;;;;;11.28;55.17;102008.88;5078093;27;46392;-71
2022/03/21 06:37:27;;;;;;;;;59.50;49.25;;;;;11.28;55.23;102008.88;5078214;27;45435;-69
2022/03/21 06:39:53;;;;;;;;;59.25;49.00;;;;;11.28;54.28;102006.22;5078211;27;45467;-68
2022/03/21 06:42:21;;;;;;;;;61.00;48.25;;;;;11.27;54.93;102017.63;5078127;27;45434;-66
2022/03/21 06:44:50;;;;;;;;;61.50;50.25;;;;;11.26;54.77;102015.03;5077981;27;45924;-68
2022/03/21 06:47:17;;;;;;;;;59.50;49.00;;;;;11.27;54.85;102022.91;5078129;27;45483;-70
2022/03/21 06:49:42;;;;;;;;;59.25;47.50;;;;;11.28;54.70;102024.66;5077865;27;45422;-68
2022/03/21 06:52:08;;;;;;;;;59.00;46.75;;;;;11.30;54.56;102031.66;5077939;27;45509;-69
2022/03/21 06:54:34;;;;;;;;;60.75;49.75;;;;;11.31;55.01;102034.28;5077668;27;45436;-72
2022/03/21 06:57:00;;;;;;;;;60.00;47.75;;;;;11.32;55.41;102041.28;5077653;27;45381;-69
2022/03/21 06:59:25;;;;;;;;;62.75;50.25;;;;;11.32;55.05;102035.16;5077683;27;45475;-66
2022/03/21 07:01:50;;;;;;;;;62.50;49.00;;;;;11.31;55.07;102043.91;5077719;27;45513;-72
2022/03/21 07:04:16;;;;;;;;;59.00;48.50;;;;;11.32;55.47;102043.91;5077666;27;45412;-69
2022/03/21 07:06:41;;;;;;;;;56.00;45.75;;;;;11.35;54.77;102043.00;5075449;28;45422;-69
2022/03/21 07:09:07;;;;;;;;;52.75;44.50;;;;;11.36;55.10;102039.47;5076269;27;45433;-70
2022/03/21 07:11:34;;;;;;;;;60.00;45.75;;;;;11.38;55.11;102043.81;5077692;27;45435;-66
2022/03/21 07:14:00;;;;;;;;;57.25;45.75;;;;;11.40;55.09;102049.06;5077298;27;46195;-69
2022/03/21 07:16:26;;;;;;;;;53.00;44.25;;;;;11.41;55.01;102040.25;5077269;27;45507;-71
2022/03/21 07:18:51;;;;;;;;;57.75;47.50;;;;;11.46;55.68;102048.97;5077332;27;45398;-67
2022/03/21 07:21:16;;;;;;;;;59.50;48.00;;;;;11.48;55.08;102052.44;5077539;27;45500;-70
2022/03/21 07:23:43;;;;;;;;;55.25;45.25;;;;;11.48;55.14;102055.09;5077295;27;47042;-71
2022/03/21 07:26:08;;;;;;;;;62.25;48.25;;;;;11.50;55.09;102048.03;5076085;28;45553;-67
2022/03/21 07:28:34;;;;;;;;;57.00;46.25;;;;;11.50;54.68;102051.53;5077605;28;45417;-68
2022/03/21 07:30:59;;;;;;;;;59.75;47.25;;;;;11.53;54.81;102047.97;5077588;27;45469;-72
2022/03/21 07:33:24;;;;;;;;;52.25;43.00;;;;;11.54;54.83;102048.84;5077018;27;45411;-71
2022/03/21 07:35:50;;;;;;;;;55.00;45.75;;;;;11.57;54.70;102056.69;5076964;27;45399;-69
2022/03/21 07:38:18;;;;;;;;;54.00;45.00;;;;;11.58;55.03;102047.88;5077178;27;45374;-65
2022/03/21 07:40:46;;;;;;;;;56.75;46.75;;;;;11.63;54.09;102054.84;5077088;28;45358;-68
2022/03/21 07:43:12;;;;;;;;;53.00;44.00;;;;;11.64;55.09;102056.56;5076842;27;45474;-69
2022/03/21 07:48:21;;;;;;;;;51.75;42.00;;;;;11.71;54.01;102054.69;5077203;28;45488;-70
2022/03/21 07:50:47;;;;;;;;;52.25;44.25;;;;;11.73;54.85;102061.69;5076950;27;45604;-70
2022/03/21 07:53:12;;;;;;;;;56.50;44.75;;;;;11.75;54.60;102056.41;5077001;27;46198;-71
2022/03/21 07:55:37;;;;;;;;;56.50;45.50;;;;;11.77;53.86;102059.00;5076989;27;45420;-68
2022/03/21 07:58:04;;;;;;;;;55.25;43.25;;;;;11.77;53.82;102070.44;5076900;27;45572;-71
2022/03/21 08:00:31;;;;;;;;;58.25;47.50;;;;;11.78;54.10;102069.53;5076920;28;45386;-71
2022/03/21 08:02:58;;;;;;;;;56.75;47.00;;;;;11.79;54.53;102054.56;5076920;27;46076;-70
2022/03/21 08:05:23;;;;;;;;;55.75;46.00;;;;;11.79;54.20;102063.34;5076695;28;45431;-70
2022/03/21 08:07:51;;;;;;;;;57.25;46.50;;;;;11.81;53.95;102068.59;5076820;27;45405;-70
2022/03/21 08:10:18;;;;;;;;;59.00;45.75;;;;;11.83;54.02;102066.81;5076688;27;45397;-70
2022/03/21 08:12:46;;;;;;;;;53.25;44.75;;;;;11.85;54.67;102070.31;5076468;27;45990;-67
2022/03/21 08:15:12;;;;;;;;;59.00;48.25;;;;;11.88;54.30;102063.25;5076467;27;45409;-65
2022/03/21 08:17:58;;;;;;;;;52.75;44.75;;;;;11.89;54.25;102066.75;5076300;27;45415;-69
2022/03/21 08:20:26;;;;;;;;;52.00;43.25;;;;;11.93;53.87;102069.31;5076309;27;45430;-66
2022/03/21 08:22:52;;;;;;;;;54.25;42.00;;;;;11.94;53.62;102070.16;5076289;27;45457;-65
2022/03/21 08:25:20;;;;;;;;;47.75;40.75;;;;;11.96;53.52;102071.03;5074839;28;45487;-67
2022/03/21 08:27:46;;;;;;;;;55.75;45.00;;;;;11.98;53.17;102068.34;5075175;28;45521;-67
2022/03/21 08:30:15;;;;;;;;;51.50;43.75;;;;;12.03;53.21;102074.41;5076167;27;45556;-68
2022/03/21 08:32:42;;;;;;;;;53.75;40.50;;;;;12.06;53.49;102071.69;5076149;28;46100;-68
2022/03/21 08:35:08;;;;;;;;;53.25;44.25;;;;;12.08;53.25;102081.34;5075203;27;45770;-69
2022/03/21 08:37:33;;;;;;;;;46.75;40.75;;;;;12.12;52.70;102084.81;5076014;27;45457;-68
2022/03/21 08:39:58;;;;;;;;;43.00;38.25;;;;;12.15;53.02;102084.75;5076363;27;45397;-70
2022/03/21 08:42:24;;;;;;;;;48.50;41.00;;;;;12.16;53.66;102084.69;5075770;27;45413;-65
2022/03/21 08:44:49;;;;;;;;;43.25;38.25;;;;;12.20;53.75;102082.00;5075959;27;45424;-66
2022/03/21 08:47:14;;;;;;;;;42.25;38.25;;;;;12.26;52.50;102081.91;5076214;27;45685;-67
2022/03/21 08:49:40;;;;;;;;;44.00;38.00;;;;;12.28;52.92;102082.75;5075881;27;45441;-67
2022/03/21 08:52:08;;;;;;;;;49.25;40.00;;;;;12.31;52.78;102082.69;5076058;27;46150;-68
2022/03/21 08:54:34;;;;;;;;;49.75;41.00;;;;;12.37;52.27;102082.56;5076041;27;45378;-69
2022/03/21 08:56:59;;;;;;;;;44.25;38.25;;;;;12.41;52.17;102081.59;5075877;27;46112;-69
2022/03/21 08:59:25;;;;;;;;;46.25;38.00;;;;;12.45;52.48;102083.28;5076227;27;45669;-67
2022/03/21 09:01:51;;;;;;;;;37.25;36.00;;;;;12.49;51.91;102082.34;5075741;27;45540;-71
2022/03/21 09:04:16;;;;;;;;;50.00;41.75;;;;;12.46;52.54;102077.09;5075661;28;45414;-70
2022/03/21 09:06:42;;;;;;;;;44.50;39.75;;;;;12.52;52.85;102078.75;5075796;27;45558;-71
2022/03/21 09:09:08;;;;;;;;;44.00;37.50;;;;;12.58;52.21;102076.00;5076312;27;45615;-65
2022/03/21 09:11:33;;;;;;;;;53.00;43.75;;;;;12.60;52.47;102079.50;5075979;28;46068;-67
2022/03/21 09:13:58;;;;;;;;;46.50;39.50;;;;;12.67;52.26;102072.31;5076013;27;45475;-69
2022/03/21 09:16:24;;;;;;;;;48.50;39.75;;;;;12.72;52.41;102070.44;5075104;27;57930;-67
2022/03/21 09:18:49;;;;;;;;;51.50;43.75;;;;;12.78;52.08;102067.66;5075406;27;45416;-69
2022/03/21 09:21:15;;;;;;;;;52.00;43.00;;;;;12.82;51.57;102064.09;5075620;27;46093;-69
2022/03/21 09:23:40;;;;;;;;;46.25;37.50;;;;;12.86;51.40;102064.88;5075348;27;45380;-68
2022/03/21 09:26:10;;;;;;;;;46.00;38.00;;;;;12.90;52.15;102071.84;5075334;27;45401;-67
2022/03/21 09:28:36;;;;;;;;;52.00;41.00;;;;;12.95;51.44;102067.31;5075553;27;45587;-69
2022/03/21 09:31:02;;;;;;;;;46.00;37.00;;;;;12.94;51.33;102057.66;5074162;27;45408;-70
2022/03/21 09:33:28;;;;;;;;;43.00;39.25;;;;;13.02;51.61;102069.78;5075309;27;45572;-68
2022/03/21 09:35:53;;;;;;;;;48.25;41.00;;;;;13.05;51.72;102069.72;5075826;27;45532;-71
2022/03/21 09:38:19;;;;;;;;;51.25;42.25;;;;;13.09;51.64;102065.25;5075340;27;45447;-69
2022/03/21 09:40:45;;;;;;;;;40.75;37.25;;;;;13.10;51.39;102063.47;5074835;28;59266;-68
2022/03/21 09:43:11;;;;;;;;;40.50;36.75;;;;;13.15;51.11;102069.53;5075412;27;45437;-71
2022/03/21 09:45:38;;;;;;;;;47.50;39.75;;;;;13.18;51.75;102062.38;5075170;27;45520;-72
2022/03/21 09:48:14;;;;;;;;;40.00;36.00;;;;;13.22;51.28;102060.56;5075389;27;45331;-67
2022/03/21 09:50:50;;;;;;;;;42.25;36.50;;;;;13.27;51.11;102061.34;5074793;27;45906;-71
2022/03/21 09:53:16;;;;;;;;;38.50;36.25;;;;;13.30;50.71;102053.38;5075099;27;45476;-68
2022/03/21 09:55:44;;;;;;;;;46.25;39.25;;;;;13.33;50.79;102063.84;5075194;27;45430;-70
2022/03/21 09:58:10;;;;;;;;;41.25;35.25;;;;;13.34;50.98;102055.00;5074948;27;45413;-70
2022/03/21 10:00:37;;;;;;;;;37.25;33.25;;;;;13.38;50.25;102042.59;5074861;27;45965;-71
2022/03/21 10:03:03;;;;;;;;;34.50;32.50;;;;;13.44;50.80;102043.31;5074898;27;45538;-70
2022/03/21 10:05:41;;;;;;;;;25.25;25.25;;;;;13.49;49.88;102048.50;5073786;27;45411;-69
2022/03/21 10:08:21;;;;;;;;;31.75;30.25;;;;;13.52;49.83;102044.94;5075009;27;45523;-71
2022/03/21 10:11:05;;;;;;;;;37.00;30.25;;;;;13.70;49.40;102041.81;5074854;27;45506;-70
2022/03/21 10:13:36;;;;;;;;;22.33;20.67;;;;;13.94;48.81;102040.31;5075158;27;45450;-72
2022/03/21 10:16:19;;;;;;;;;32.00;29.33;;;;;14.25;48.40;102045.66;5075261;27;45410;-71
2022/03/21 10:18:54;;;;;;;;;20.00;20.00;;;;;14.47;48.43;102042.41;5075037;27;45406;-72
2022/03/21 10:21:22;;;;;;;;;27.33;26.67;;;;;14.63;47.03;102040.22;5074815;27;45485;-70
2022/03/21 10:24:07;;;;;;;;;21.67;19.00;;;;;14.75;47.40;102039.88;5074849;27;45513;-73
2022/03/21 10:26:40;;;;;;;;;18.67;18.67;;;;;14.80;47.05;102035.28;5075043;27;45414;-71
2022/03/21 10:29:10;;;;;;;;;16.67;16.67;;;;;14.79;46.55;102033.56;5074956;27;45499;-71
2022/03/21 10:31:39;;;;;;;;;19.33;19.33;;;;;14.90;46.25;102030.56;5074585;27;45441;-72
2022/03/21 10:34:11;;;;;;;;;12.00;12.00;;;;;15.00;45.98;102032.03;5074855;27;45844;-69
2022/03/21 10:37:06;;;;;;;;;12.33;12.33;;;;;15.02;46.71;102024.91;5075034;27;45390;-65
2022/03/21 10:39:34;;;;;;;;;15.67;15.67;;;;;15.00;46.56;102026.75;5074685;28;45516;-70
2022/03/21 10:42:05;;;;;;;;;20.00;16.33;;;;;14.97;46.78;102018.88;5075987;27;45421;-67
2022/03/21 10:44:33;;;;;;;;;16.33;16.33;;;;;14.91;45.98;102032.31;5078281;27;45448;-70
2022/03/21 10:47:00;;;;;;;;;17.00;16.00;;;;;14.86;46.35;102023.66;5077307;27;45363;-65
2022/03/21 10:49:43;;;;;;;;;19.00;17.67;;;;;14.82;47.53;102022.88;5077688;27;45540;-71
2022/03/21 10:52:15;;;;;;;;;14.67;14.67;;;;;14.75;46.95;102022.19;5077866;27;45352;-72
2022/03/21 10:54:50;;;;;;;;;20.00;16.33;;;;;14.71;46.86;102017.88;5078024;27;45468;-69
2022/03/21 10:57:36;;;;;;;;;35.00;32.00;;;;;14.69;46.95;102019.72;5077877;27;45494;-70
2022/03/21 11:00:22;;;;;;;;;14.67;13.67;;;;;14.67;46.85;102024.22;5077842;27;45349;-70
2022/03/21 11:02:51;;;;;;;;;14.67;14.33;;;;;14.66;47.56;102013.66;5077723;27;45911;-69
2022/03/21 11:05:18;;;;;;;;;20.33;18.00;;;;;14.64;47.47;102019.00;5077793;27;45404;-69
2022/03/21 11:07:45;;;;;;;;;17.67;16.00;;;;;14.63;47.18;102006.66;5077832;27;45373;-71
2022/03/21 11:10:11;;;;;;;;;20.00;15.67;;;;;14.63;47.59;102014.59;5077555;27;45361;-72
2022/03/21 11:12:38;;;;;;;;;14.00;14.00;;;;;14.63;47.33;102009.31;5077729;27;46171;-70
2022/03/21 11:15:06;;;;;;;;;18.00;18.00;;;;;14.66;48.03;102001.25;5077476;27;45429;-69
2022/03/21 11:17:32;;;;;;;;;26.00;18.67;;;;;14.68;47.66;102010.03;5077624;27;45580;-69
2022/03/21 11:20:00;;;;;;;;;14.33;13.00;;;;;14.70;47.33;101999.41;5077372;27;45556;-70
2022/03/21 11:22:26;;;;;;;;;16.00;16.00;;;;;14.69;47.23;102001.16;5077755;27;45488;-69
2022/03/21 11:24:51;;;;;;;;;17.33;16.00;;;;;14.72;46.70;101995.81;5077613;27;45441;-70
2022/03/21 11:27:41;;;;;;;;;19.33;18.67;;;;;14.73;47.21;101989.59;5077196;27;45426;-68